Time;durP1;ratioP1;P1;durP2;ratioP2;P2;SDS_P1;SDS_P2;PMS_P1;PMS_P2;Temp;Humidity;BMP_temperature;BMP_pressure;BME280_temperature;BME280_humidity;BME280_pressure;Samples;Min_cycle;Max_cycle;Signal;HPM_P1;HPM_P2
2021/12/17 00:02:07;;;;;;;2.50;1.48;;;18.40;53.70;;;;;;5033269;28;20120;-59
2021/12/17 00:04:36;;;;;;;4.47;1.88;;;18.50;53.80;;;;;;5041465;28;20060;-60
2021/12/17 00:07:04;;;;;;;4.22;2.33;;;18.40;53.70;;;;;;5038509;28;20396;-59
2021/12/17 00:09:31;;;;;;;2.72;1.40;;;18.50;53.80;;;;;;5044005;28;20037;-60
2021/12/17 00:11:58;;;;;;;3.17;1.92;;;18.40;53.70;;;;;;5038276;28;20136;-60
2021/12/17 00:14:27;;;;;;;3.90;2.10;;;18.40;53.70;;;;;;5038121;28;20045;-58
2021/12/17 00:16:58;;;;;;;2.95;2.13;;;18.40;53.70;;;;;;5037813;28;20037;-58
2021/12/17 00:19:40;;;;;;;2.33;2.17;;;18.40;53.70;;;;;;5042724;28;20148;-58
2021/12/17 00:50:06;;;;;;;3.40;1.73;;;18.30;53.80;;;;;;5002125;28;20084;-60
2021/12/17 00:52:35;;;;;;;1.77;1.77;;;18.30;53.80;;;;;;4981283;28;20038;-60
2021/12/17 00:55:05;;;;;;;2.78;1.23;;;18.30;53.90;;;;;;4976147;28;20141;-61
2021/12/17 00:57:38;;;;;;;1.85;1.65;;;18.40;53.90;;;;;;4990346;28;20048;-61
2021/12/17 01:00:08;;;;;;;3.67;2.30;;;18.40;53.90;;;;;;4987578;28;20076;-61
2021/12/17 01:02:38;;;;;;;1.67;1.33;;;18.30;53.90;;;;;;4979908;28;20117;-61
2021/12/17 01:05:11;;;;;;;2.05;1.00;;;18.30;53.90;;;;;;4982600;28;20542;-61
2021/12/17 01:07:43;;;;;;;2.45;1.38;;;18.40;53.90;;;;;;5019305;28;20065;-61
2021/12/17 01:10:20;;;;;;;2.05;1.50;;;18.30;53.90;;;;;;5041922;28;20099;-61
2021/12/17 01:13:01;;;;;;;2.42;1.88;;;18.40;54.00;;;;;;5030363;28;20041;-61
2021/12/17 01:15:57;;;;;;;;;;;18.40;54.00;;;;;;5035916;28;20130;-61
2021/12/17 01:18:44;;;;;;;3.05;1.67;;;18.30;53.90;;;;;;5029590;28;20312;-61
2021/12/17 01:21:30;;;;;;;2.30;1.42;;;18.30;54.20;;;;;;5030056;28;20608;-60
2021/12/17 01:24:32;;;;;;;4.72;1.83;;;18.30;54.70;;;;;;5037291;28;20124;-61
2021/12/17 01:36:08;;;;;;;4.18;2.30;;;18.30;54.30;;;;;;5027745;28;20033;-60
2021/12/17 01:44:12;;;;;;;2.67;1.67;;;18.30;54.40;;;;;;5017244;28;20057;-59
2021/12/17 01:46:40;;;;;;;3.80;2.20;;;18.30;54.40;;;;;;5034597;28;20068;-61
2021/12/17 01:49:25;;;;;;;3.40;2.20;;;18.30;54.40;;;;;;5033864;28;20120;-59
2021/12/17 02:00:23;;;;;;;2.00;1.90;;;18.30;54.40;;;;;;5026358;28;20552;-59
2021/12/17 02:02:54;;;;;;;3.72;1.83;;;18.30;54.40;;;;;;5028511;28;20045;-61
2021/12/17 02:05:32;;;;;;;2.05;1.95;;;18.30;54.50;;;;;;5041759;28;20041;-60
2021/12/17 02:08:00;;;;;;;3.42;2.20;;;18.30;54.50;;;;;;5035867;28;20040;-61
2021/12/17 02:11:12;;;;;;;2.13;1.98;;;18.30;54.40;;;;;;5038226;28;20048;-61
2021/12/17 02:30:40;;;;;;;2.15;1.88;;;18.20;54.40;;;;;;4954615;28;20050;-55
2021/12/17 02:33:07;;;;;;;1.58;1.50;;;18.30;54.40;;;;;;4965912;28;20053;-59
2021/12/17 02:35:40;;;;;;;1.60;1.50;;;18.30;54.40;;;;;;4968323;28;20054;-58
2021/12/17 02:38:10;;;;;;;1.60;1.50;;;18.20;54.40;;;;;;4981277;28;20198;-58
2021/12/17 02:47:05;;;;;;;2.42;1.65;;;18.20;55.00;;;;;;4967127;28;20527;-58
2021/12/17 02:49:33;;;;;;;2.78;1.65;;;18.20;54.40;;;;;;4966426;28;20137;-58
2021/12/17 02:52:04;;;;;;;4.72;2.85;;;18.30;54.40;;;;;;4964871;28;20070;-59
2021/12/17 02:54:34;;;;;;;2.33;1.65;;;18.30;54.40;;;;;;4966235;28;20082;-58
2021/12/17 02:57:02;;;;;;;1.58;1.48;;;18.30;54.40;;;;;;4966227;28;20650;-58
2021/12/17 02:59:29;;;;;;;4.28;2.45;;;18.20;54.40;;;;;;4982717;28;20050;-58
2021/12/17 03:01:57;;;;;;;2.47;1.67;;;18.20;54.30;;;;;;5016863;28;20406;-58
2021/12/17 03:04:27;;;;;;;3.17;2.35;;;18.20;54.30;;;;;;5033665;28;20611;-58
2021/12/17 03:06:55;;;;;;;3.33;2.78;;;18.20;54.30;;;;;;5029610;28;20116;-59
2021/12/17 03:09:36;;;;;;;7.13;2.65;;;18.20;54.30;;;;;;5039487;28;20051;-58
2021/12/17 03:12:08;;;;;;;1.98;1.67;;;18.20;54.30;;;;;;5030446;28;20417;-59
2021/12/17 03:14:42;;;;;;;2.95;2.45;;;18.20;54.30;;;;;;5034984;28;20041;-58
2021/12/17 03:17:16;;;;;;;1.75;1.65;;;18.20;54.30;;;;;;5030176;28;20040;-59
2021/12/17 03:25:17;;;;;;;2.65;1.08;;;18.20;54.30;;;;;;5010582;28;20081;-56
2021/12/17 03:27:45;;;;;;;2.75;2.13;;;18.20;54.50;;;;;;4994170;28;20069;-57
2021/12/17 03:30:15;;;;;;;2.42;2.22;;;18.20;54.40;;;;;;4989507;28;20156;-60
2021/12/17 03:32:42;;;;;;;3.08;1.65;;;18.20;54.40;;;;;;4996151;28;20050;-59
2021/12/17 03:35:09;;;;;;;2.55;1.65;;;18.20;54.40;;;;;;5007483;28;20054;-59
2021/12/17 03:37:36;;;;;;;3.10;1.75;;;18.30;54.50;;;;;;4993828;28;20996;-60
2021/12/17 03:40:04;;;;;;;2.38;2.17;;;18.20;54.40;;;;;;4991541;28;20046;-59
2021/12/17 03:42:31;;;;;;;1.60;1.50;;;18.20;54.40;;;;;;5009112;28;20053;-59
2021/12/17 03:45:00;;;;;;;3.08;1.52;;;18.20;54.40;;;;;;4989291;28;20426;-59
2021/12/17 03:47:44;;;;;;;2.10;1.58;;;18.20;54.40;;;;;;4992503;28;20073;-57
2021/12/17 03:50:18;;;;;;;1.83;1.73;;;18.20;54.40;;;;;;4991423;28;20703;-57
2021/12/17 03:52:45;;;;;;;3.95;1.73;;;18.20;54.40;;;;;;4992599;28;20042;-57
2021/12/17 03:55:14;;;;;;;2.78;1.55;;;18.20;54.40;;;;;;5010458;28;20131;-58
2021/12/17 03:57:45;;;;;;;2.00;1.58;;;18.20;54.40;;;;;;4991131;28;20053;-59
2021/12/17 04:00:14;;;;;;;3.67;1.70;;;18.20;54.40;;;;;;5005681;28;20129;-59
2021/12/17 04:02:45;;;;;;;1.55;1.15;;;18.20;54.40;;;;;;5031759;28;20053;-59
2021/12/17 04:05:24;;;;;;;4.55;1.60;;;18.20;54.50;;;;;;5040372;28;20481;-57
2021/12/17 04:08:00;;;;;;;3.20;1.67;;;18.20;54.50;;;;;;5036241;28;20052;-58
2021/12/17 04:10:49;;;;;;;4.25;1.70;;;18.20;54.50;;;;;;5035654;28;20045;-58
2021/12/17 04:13:30;;;;;;;4.43;1.27;;;18.20;54.50;;;;;;5031431;28;20094;-58
2021/12/17 04:16:08;;;;;;;1.67;1.38;;;18.20;54.50;;;;;;5028488;28;20059;-59
2021/12/17 04:18:36;;;;;;;2.08;1.40;;;18.20;54.50;;;;;;5027192;28;20128;-58
2021/12/17 04:21:13;;;;;;;1.88;1.70;;;18.20;54.50;;;;;;5028786;28;20049;-58
2021/12/17 04:23:40;;;;;;;3.40;1.95;;;18.20;54.50;;;;;;5035470;28;20050;-59
2021/12/17 04:26:08;;;;;;;1.55;1.52;;;18.20;54.40;;;;;;5028486;28;20438;-55
2021/12/17 04:28:37;;;;;;;1.33;1.23;;;18.20;54.40;;;;;;5035962;28;20053;-59
2021/12/17 04:31:06;;;;;;;2.13;1.40;;;18.20;54.40;;;;;;5038900;28;20049;-58
2021/12/17 04:33:38;;;;;;;2.33;1.48;;;18.20;54.40;;;;;;5033889;28;20124;-59
2021/12/17 04:36:06;;;;;;;1.85;1.67;;;18.20;54.40;;;;;;5028090;28;20041;-60
2021/12/17 04:38:34;;;;;;;2.05;1.45;;;18.20;54.40;;;;;;5046301;28;20480;-58
2021/12/17 04:41:33;;;;;;;1.45;1.35;;;18.20;54.30;;;;;;5035658;28;20045;-58
2021/12/17 04:44:02;;;;;;;1.30;1.13;;;18.20;54.30;;;;;;5039204;28;20033;-58
2021/12/17 04:46:36;;;;;;;2.17;1.50;;;18.20;54.30;;;;;;5035516;28;20059;-59
2021/12/17 04:57:28;;;;;;;2.47;1.75;;;18.20;54.30;;;;;;4989903;28;20116;-59
2021/12/17 04:59:59;;;;;;;2.28;2.03;;;18.20;54.30;;;;;;4992280;28;20522;-59
2021/12/17 05:02:29;;;;;;;2.60;2.40;;;18.20;54.30;;;;;;4999265;28;20049;-56
2021/12/17 05:05:07;;;;;;;4.03;2.53;;;18.20;54.20;;;;;;4998743;28;20046;-58
2021/12/17 05:07:40;;;;;;;4.20;2.60;;;18.20;54.20;;;;;;4998836;28;20046;-57
2021/12/17 05:10:16;;;;;;;6.13;2.78;;;18.20;54.10;;;;;;4995435;28;20140;-58
2021/12/17 05:18:18;;;;;;;7.35;2.83;;;18.30;54.20;;;;;;5002417;28;20065;-58
2021/12/17 05:20:55;;;;;;;5.28;3.10;;;18.20;54.10;;;;;;4996012;28;20050;-59
2021/12/17 05:23:27;;;;;;;6.90;4.38;;;18.20;54.10;;;;;;5016781;28;20046;-58
2021/12/17 05:25:54;;;;;;;8.40;3.80;;;18.30;54.10;;;;;;4993585;28;20081;-57
2021/12/17 05:28:26;;;;;;;4.00;3.55;;;18.20;54.10;;;;;;4996888;28;20501;-55
2021/12/17 05:30:55;;;;;;;5.38;3.83;;;18.30;54.10;;;;;;4972444;28;20054;-59
2021/12/17 05:33:25;;;;;;;5.88;3.72;;;18.30;54.10;;;;;;4998823;28;20328;-59
2021/12/17 05:35:53;;;;;;;5.53;3.67;;;18.30;54.00;;;;;;5029184;28;20045;-58
2021/12/17 05:38:23;;;;;;;5.20;4.13;;;18.30;54.00;;;;;;5055288;28;20045;-58
2021/12/17 05:40:51;;;;;;;6.72;4.50;;;18.30;54.00;;;;;;5033705;28;20527;-58
2021/12/17 05:43:20;;;;;;;7.25;4.18;;;18.30;54.00;;;;;;5033084;28;20037;-57
2021/12/17 05:45:52;;;;;;;3.58;3.03;;;18.30;53.90;;;;;;5030342;28;20037;-58
2021/12/17 05:48:21;;;;;;;4.20;3.75;;;18.30;53.90;;;;;;5041024;28;20045;-59
2021/12/17 05:50:53;;;;;;;7.13;4.45;;;18.30;53.90;;;;;;5044791;28;20037;-60
2021/12/17 05:53:21;;;;;;;4.20;3.80;;;18.30;53.90;;;;;;5033229;28;20112;-59
2021/12/17 05:55:51;;;;;;;4.35;3.50;;;18.30;53.90;;;;;;5034988;28;20051;-59
2021/12/17 05:58:18;;;;;;;5.30;3.90;;;18.30;53.90;;;;;;5030280;28;20045;-59
2021/12/17 06:00:46;;;;;;;4.30;3.42;;;18.30;53.80;;;;;;5029695;28;20050;-58
2021/12/17 06:03:40;;;;;;;4.03;3.05;;;18.30;53.80;;;;;;5029143;28;20049;-56
2021/12/17 06:06:12;;;;;;;3.47;2.83;;;18.30;53.90;;;;;;5032038;28;20064;-56
2021/12/17 06:08:42;;;;;;;3.90;3.17;;;18.40;53.90;;;;;;5042715;28;20498;-55
2021/12/17 06:11:09;;;;;;;4.15;3.35;;;18.30;53.90;;;;;;5051080;28;20135;-60
2021/12/17 06:13:36;;;;;;;4.53;3.00;;;18.30;53.90;;;;;;5038804;28;20409;-60
2021/12/17 06:16:04;;;;;;;2.95;2.65;;;18.30;53.90;;;;;;5036060;28;20082;-61
2021/12/17 06:18:32;;;;;;;6.63;3.28;;;18.30;53.80;;;;;;5039877;28;20037;-60
2021/12/17 06:20:59;;;;;;;4.50;2.70;;;18.40;53.90;;;;;;5037772;28;20128;-60
2021/12/17 06:23:27;;;;;;;6.90;2.65;;;18.30;53.80;;;;;;5042504;28;20055;-60
2021/12/17 06:25:55;;;;;;;4.00;2.42;;;18.40;53.80;;;;;;5046812;28;20044;-59
2021/12/17 06:28:22;;;;;;;3.90;2.80;;;18.40;53.80;;;;;;5043412;28;20044;-60
2021/12/17 06:30:54;;;;;;;3.75;2.65;;;18.40;53.80;;;;;;5037642;28;20037;-60
2021/12/17 06:33:28;;;;;;;2.30;2.10;;;18.40;53.80;;;;;;5036022;28;20128;-61
2021/12/17 06:35:56;;;;;;;3.08;2.42;;;18.40;53.80;;;;;;5040397;28;20048;-60
2021/12/17 06:38:24;;;;;;;3.92;2.75;;;18.40;53.80;;;;;;5042659;28;20497;-61
2021/12/17 06:40:55;;;;;;;5.15;3.15;;;18.40;53.70;;;;;;5021726;28;20044;-60
2021/12/17 06:43:29;;;;;;;7.63;3.13;;;18.40;53.70;;;;;;5038369;28;20064;-61
2021/12/17 06:46:04;;;;;;;5.10;2.92;;;18.40;53.70;;;;;;5040122;28;20045;-55
2021/12/17 06:48:32;;;;;;;4.70;2.47;;;18.40;53.70;;;;;;5034766;28;20041;-58
2021/12/17 07:00:13;;;;;;;2.40;2.22;;;18.30;53.70;;;;;;5040660;28;20198;-61
2021/12/17 07:06:20;;;;;;;5.45;2.28;;;18.30;53.80;;;;;;5040895;28;20777;-60
2021/12/17 07:18:09;;;;;;;3.03;1.80;;;18.40;53.90;;;;;;4958220;28;20411;-60
2021/12/17 07:21:01;;;;;;;2.45;1.70;;;18.30;53.80;;;;;;4963641;28;20054;-59
2021/12/17 07:35:23;;;;;;;2.97;1.13;;;18.40;54.00;;;;;;4944166;28;20800;-61
2021/12/17 07:40:37;;;;;;;21.50;12.40;;;18.40;54.10;;;;;;4960707;28;20125;-59
2021/12/17 07:43:11;;;;;;;5.10;4.00;;;18.40;54.90;;;;;;4962632;28;20046;-59
2021/12/17 07:45:49;;;;;;;6.35;3.78;;;18.40;54.90;;;;;;4959129;28;20055;-60
2021/12/17 07:48:26;;;;;;;3.40;2.75;;;18.40;54.80;;;;;;4963257;28;20550;-59
2021/12/17 07:50:57;;;;;;;5.47;2.58;;;18.40;54.70;;;;;;4971350;28;20084;-57
2021/12/17 07:53:45;;;;;;;3.45;2.20;;;18.40;54.60;;;;;;5041952;28;20040;-60
2021/12/17 07:56:20;;;;;;;11.73;2.42;;;18.50;54.60;;;;;;5032890;28;20049;-60
2021/12/17 07:58:48;;;;;;;6.43;3.00;;;18.50;54.60;;;;;;5030917;28;20421;-59
2021/12/17 08:01:17;;;;;;;12.05;2.75;;;18.50;54.70;;;;;;5037236;28;20047;-59
2021/12/17 08:03:47;;;;;;;3.75;2.50;;;18.50;54.70;;;;;;5044565;28;20044;-59
2021/12/17 08:06:31;;;;;;;2.65;2.33;;;18.50;54.60;;;;;;5041872;28;20168;-57
2021/12/17 08:09:15;;;;;;;2.70;2.05;;;18.50;54.60;;;;;;5046007;28;20056;-58
2021/12/17 08:11:43;;;;;;;5.90;2.63;;;18.50;54.50;;;;;;5046473;28;20092;-58
2021/12/17 08:14:16;;;;;;;3.72;1.90;;;18.50;54.40;;;;;;5047894;28;20041;-59
2021/12/17 08:16:53;;;;;;;2.08;1.08;;;18.50;54.40;;;;;;5038518;28;20084;-58
2021/12/17 08:24:58;;;;;;;2.15;1.63;;;18.50;54.20;;;;;;5034344;28;20080;-55
2021/12/17 08:27:32;;;;;;;4.68;1.42;;;18.50;54.10;;;;;;5031692;28;20067;-59
2021/12/17 08:30:23;;;;;;;1.00;1.00;;;18.50;54.10;;;;;;5033450;28;20065;-59
2021/12/17 08:32:55;;;;;;;1.60;1.17;;;18.50;54.00;;;;;;5044614;28;20494;-60
2021/12/17 08:35:23;;;;;;;7.22;1.63;;;18.50;54.00;;;;;;5037901;28;20054;-59
2021/12/17 08:37:54;;;;;;;0.93;0.93;;;18.50;53.90;;;;;;5040290;28;20398;-58
2021/12/17 08:40:26;;;;;;;3.67;1.25;;;18.50;53.80;;;;;;5041455;28;20038;-59
2021/12/17 08:42:54;;;;;;;1.58;1.35;;;18.50;53.80;;;;;;5033204;28;20048;-59
2021/12/17 08:45:23;;;;;;;3.83;1.77;;;18.50;53.70;;;;;;5031420;28;20056;-58
2021/12/17 08:48:18;;;;;;;1.75;1.50;;;18.50;53.70;;;;;;5046688;28;20616;-59
2021/12/17 08:50:55;;;;;;;1.23;0.85;;;18.50;53.60;;;;;;5027307;28;20528;-59
2021/12/17 08:53:22;;;;;;;2.70;1.10;;;18.50;53.60;;;;;;5031104;28;20843;-59
2021/12/17 08:55:52;;;;;;;1.75;1.30;;;18.50;53.60;;;;;;5024849;28;20052;-58
2021/12/17 08:58:20;;;;;;;1.42;0.75;;;18.50;53.50;;;;;;5046117;28;20120;-58
2021/12/17 09:00:49;;;;;;;0.70;0.50;;;18.50;53.50;;;;;;5045786;28;20056;-59
2021/12/17 09:03:25;;;;;;;1.23;0.77;;;18.50;53.40;;;;;;5046351;28;20041;-57
2021/12/17 09:06:07;;;;;;;2.42;1.00;;;18.50;53.40;;;;;;5042784;28;20060;-58
2021/12/17 09:08:43;;;;;;;1.58;1.02;;;18.50;53.40;;;;;;5022021;28;20049;-59
2021/12/17 09:11:11;;;;;;;5.90;2.38;;;18.50;53.40;;;;;;5028979;28;20076;-58
2021/12/17 09:13:49;;;;;;;1.92;0.88;;;18.50;53.30;;;;;;5025282;28;20128;-57
2021/12/17 09:16:20;;;;;;;1.58;1.00;;;18.50;53.40;;;;;;5028915;28;20052;-58
2021/12/17 09:18:49;;;;;;;2.55;1.15;;;18.50;53.30;;;;;;5044955;28;20484;-59
2021/12/17 09:21:25;;;;;;;1.10;0.80;;;18.50;53.30;;;;;;5029026;28;20088;-59
2021/12/17 09:24:02;;;;;;;1.33;1.23;;;18.50;53.20;;;;;;5025876;28;20049;-59
2021/12/17 09:26:38;;;;;;;0.52;0.47;;;18.50;53.20;;;;;;5043022;28;20045;-59
2021/12/17 09:29:05;;;;;;;0.95;0.40;;;18.50;53.20;;;;;;5036965;28;20053;-59
2021/12/17 09:31:33;;;;;;;1.23;0.85;;;18.50;53.10;;;;;;5035617;28;20069;-58
2021/12/17 09:34:01;;;;;;;1.23;0.70;;;18.50;53.10;;;;;;5033282;28;20045;-59
2021/12/17 09:36:29;;;;;;;1.80;0.88;;;18.50;53.00;;;;;;5030111;28;20494;-59
2021/12/17 09:38:56;;;;;;;0.95;0.63;;;18.60;53.10;;;;;;5044778;28;20048;-58
2021/12/17 09:41:26;;;;;;;0.77;0.77;;;18.60;53.00;;;;;;5032660;28;20049;-59
2021/12/17 09:43:54;;;;;;;1.15;1.05;;;18.50;53.00;;;;;;5035142;28;20160;-59
2021/12/17 09:46:22;;;;;;;1.05;0.95;;;18.50;52.90;;;;;;5038566;28;20048;-59
2021/12/17 09:48:50;;;;;;;1.65;0.98;;;18.50;52.90;;;;;;5032801;28;20037;-58
2021/12/17 09:51:20;;;;;;;1.40;1.30;;;18.60;53.00;;;;;;5027621;28;20045;-63
2021/12/17 09:53:48;;;;;;;1.52;0.75;;;18.50;52.90;;;;;;5040881;28;20119;-64
2021/12/17 09:56:16;;;;;;;1.85;1.02;;;18.50;53.00;;;;;;5041001;28;20044;-64
2021/12/17 09:58:43;;;;;;;0.65;0.65;;;18.50;53.20;;;;;;5038838;28;20037;-64
2021/12/17 10:01:11;;;;;;;0.85;0.85;;;18.50;53.30;;;;;;5038173;28;20041;-64
2021/12/17 10:03:38;;;;;;;2.03;1.20;;;18.50;53.50;;;;;;5035751;28;20084;-63
2021/12/17 10:06:06;;;;;;;1.58;1.13;;;18.50;53.50;;;;;;5042317;28;20476;-64
2021/12/17 10:08:46;;;;;;;1.85;0.70;;;18.60;53.70;;;;;;5041440;28;20523;-64
2021/12/17 10:11:16;;;;;;;1.88;0.75;;;18.60;53.70;;;;;;5039478;28;20039;-63
2021/12/17 10:13:43;;;;;;;3.25;0.90;;;18.60;53.90;;;;;;5037917;28;20041;-64
2021/12/17 10:16:12;;;;;;;5.22;1.27;;;18.50;53.90;;;;;;5040297;28;20048;-65
2021/12/17 10:18:41;;;;;;;1.20;0.60;;;18.60;54.00;;;;;;5037202;28;20140;-63
2021/12/17 10:21:10;;;;;;;1.00;0.63;;;18.50;53.80;;;;;;5038243;28;20034;-63
2021/12/17 10:23:42;;;;;;;1.08;0.80;;;18.60;53.90;;;;;;5042876;28;20132;-62
2021/12/17 10:26:12;;;;;;;2.05;0.65;;;18.60;53.90;;;;;;5033520;28;20037;-62
2021/12/17 10:28:51;;;;;;;4.15;1.05;;;18.60;53.90;;;;;;5034410;28;20056;-61
2021/12/17 10:31:19;;;;;;;2.15;0.77;;;18.60;53.90;;;;;;5030545;28;20045;-61
2021/12/17 10:33:50;;;;;;;1.40;1.30;;;18.60;53.90;;;;;;5031182;28;20046;-62
2021/12/17 10:36:17;;;;;;;1.05;0.85;;;18.60;53.80;;;;;;5029701;28;20038;-62
2021/12/17 10:38:46;;;;;;;1.05;0.93;;;18.60;53.80;;;;;;5042640;28;20406;-62
2021/12/17 10:41:15;;;;;;;4.28;1.35;;;18.60;53.80;;;;;;5032311;28;20043;-61
2021/12/17 10:43:49;;;;;;;1.77;1.33;;;18.60;53.70;;;;;;5036739;28;20057;-61
2021/12/17 10:46:25;;;;;;;1.92;1.20;;;18.60;53.70;;;;;;5038280;28;20112;-61
2021/12/17 10:48:57;;;;;;;1.27;0.93;;;18.60;53.70;;;;;;5041674;28;20150;-63
2021/12/17 10:51:42;;;;;;;2.47;1.33;;;18.60;53.70;;;;;;5039670;28;20457;-61
2021/12/17 10:54:13;;;;;;;2.33;1.37;;;18.60;53.70;;;;;;5038585;28;20072;-61
2021/12/17 10:56:42;;;;;;;3.58;1.25;;;18.70;53.80;;;;;;5039367;28;20041;-63
2021/12/17 10:59:11;;;;;;;2.10;1.38;;;18.70;53.80;;;;;;5041624;28;20087;-62
2021/12/17 11:01:42;;;;;;;2.83;1.27;;;18.70;53.80;;;;;;5038982;28;20041;-62
2021/12/17 11:04:18;;;;;;;2.17;1.75;;;18.70;53.80;;;;;;5040355;28;20064;-62
2021/12/17 11:06:47;;;;;;;;;;;18.70;53.70;;;;;;5039956;28;20065;-61
2021/12/17 11:09:39;;;;;;;4.68;1.50;;;18.60;53.70;;;;;;5041224;28;19978;-61
2021/12/17 11:12:25;;;;;;;3.35;2.05;;;18.70;53.80;;;;;;5038815;28;20045;-62
2021/12/17 11:14:56;;;;;;;2.78;1.35;;;18.70;53.80;;;;;;5039394;28;20076;-61
2021/12/17 11:17:24;;;;;;;2.42;1.58;;;18.60;53.80;;;;;;5042352;28;20045;-61
2021/12/17 11:19:55;;;;;;;5.22;2.63;;;18.70;53.80;;;;;;5040001;28;20041;-61
2021/12/17 11:22:24;;;;;;;4.03;2.08;;;18.70;53.80;;;;;;5040610;28;20448;-62
2021/12/17 11:24:53;;;;;;;4.10;2.25;;;18.70;53.70;;;;;;5039119;28;20068;-63
2021/12/17 11:27:21;;;;;;;3.45;1.42;;;18.70;53.70;;;;;;5038775;28;20069;-62
2021/12/17 11:29:49;;;;;;;3.40;2.03;;;18.70;53.70;;;;;;5038361;28;20053;-62
2021/12/17 11:32:18;;;;;;;3.05;1.65;;;18.70;53.70;;;;;;5039609;28;20041;-62
2021/12/17 11:34:46;;;;;;;2.88;2.17;;;18.70;53.60;;;;;;5036988;28;20029;-62
2021/12/17 11:37:16;;;;;;;3.13;1.95;;;18.70;53.60;;;;;;5037110;28;20135;-62
2021/12/17 11:39:48;;;;;;;3.38;1.92;;;18.70;53.60;;;;;;5039232;28;20052;-64
2021/12/17 11:42:29;;;;;;;6.45;2.08;;;18.80;53.70;;;;;;5035418;28;20103;-62
2021/12/17 11:47:44;;;;;;;4.53;2.60;;;18.80;54.40;;;;;;5041378;28;20417;-61
2021/12/17 11:50:13;;;;;;;2.90;2.28;;;18.70;53.90;;;;;;5036123;28;20037;-62
2021/12/17 11:52:42;;;;;;;7.47;2.80;;;18.80;54.00;;;;;;5035566;28;20051;-60
2021/12/17 11:55:34;;;;;;;9.10;2.08;;;18.80;54.10;;;;;;5037216;28;20037;-61
2021/12/17 11:58:06;;;;;;;2.58;2.17;;;18.80;54.00;;;;;;5037555;28;20053;-59
2021/12/17 12:00:51;;;;;;;4.53;2.13;;;18.80;54.10;;;;;;5037860;28;20041;-59
2021/12/17 12:03:20;;;;;;;8.50;2.42;;;18.90;54.00;;;;;;5019704;28;20045;-59
2021/12/17 12:05:52;;;;;;;3.10;2.33;;;18.80;54.00;;;;;;5041530;28;20276;-60
2021/12/17 12:08:26;;;;;;;7.82;2.67;;;18.80;54.00;;;;;;5042934;28;20041;-60
2021/12/17 12:11:04;;;;;;;10.15;2.90;;;18.90;54.00;;;;;;5036327;28;20056;-60
2021/12/17 12:13:39;;;;;;;8.68;4.40;;;18.90;54.00;;;;;;5038874;28;20049;-60
2021/12/17 12:16:08;;;;;;;6.03;3.10;;;18.90;53.90;;;;;;5036717;28;20044;-59
2021/12/17 12:18:45;;;;;;;3.83;2.65;;;18.90;53.90;;;;;;5037444;28;20524;-59
2021/12/17 12:21:15;;;;;;;6.18;3.33;;;18.90;53.90;;;;;;5039924;28;20153;-59
2021/12/17 12:23:49;;;;;;;8.85;4.38;;;18.90;53.80;;;;;;5041748;28;20525;-60
2021/12/17 12:26:37;;;;;;;7.03;3.70;;;18.90;53.80;;;;;;5039716;28;20209;-61
2021/12/17 12:29:10;;;;;;;6.32;2.83;;;19.00;53.80;;;;;;5039986;28;20497;-61
2021/12/17 12:31:42;;;;;;;7.47;4.00;;;19.00;53.90;;;;;;5039067;28;20068;-60
2021/12/17 12:34:13;;;;;;;5.88;4.00;;;18.90;53.80;;;;;;5037712;28;20332;-61
2021/12/17 12:36:49;;;;;;;9.00;5.55;;;19.00;53.90;;;;;;5040237;28;20048;-60
2021/12/17 12:39:17;;;;;;;7.15;3.22;;;19.00;53.90;;;;;;5037673;28;20520;-60
2021/12/17 12:41:46;;;;;;;7.38;4.25;;;19.00;53.90;;;;;;5039696;28;20453;-62
2021/12/17 12:44:15;;;;;;;5.30;3.55;;;18.90;53.80;;;;;;5034838;28;20753;-62
2021/12/17 12:46:54;;;;;;;6.50;3.28;;;19.00;53.80;;;;;;5038414;28;20045;-62
2021/12/17 12:49:45;;;;;;;3.88;2.63;;;19.00;53.80;;;;;;5032986;28;20041;-62
2021/12/17 12:52:16;;;;;;;4.65;2.42;;;19.00;53.70;;;;;;5042170;28;20119;-62
2021/12/17 12:54:49;;;;;;;6.30;4.40;;;19.00;53.70;;;;;;5040881;28;20128;-62
2021/12/17 12:57:25;;;;;;;7.90;3.65;;;19.00;53.70;;;;;;5040538;28;20038;-54
2021/12/17 12:59:55;;;;;;;8.52;3.58;;;19.00;53.70;;;;;;5029570;28;20056;-61
2021/12/17 13:02:25;;;;;;;7.07;3.67;;;19.00;53.70;;;;;;5039669;28;20037;-59
2021/12/17 13:04:54;;;;;;;5.60;2.90;;;19.00;53.60;;;;;;5039752;28;20044;-61
2021/12/17 13:07:32;;;;;;;6.63;3.35;;;19.00;54.10;;;;;;5043117;28;20060;-61
2021/12/17 13:10:07;;;;;;;5.22;3.25;;;19.00;53.40;;;;;;5042619;28;20048;-61
2021/12/17 13:12:36;;;;;;;7.05;3.63;;;19.10;53.50;;;;;;5032462;28;20065;-61
2021/12/17 13:15:18;;;;;;;5.75;3.63;;;19.00;53.30;;;;;;5030063;28;20048;-61
2021/12/17 13:21:03;;;;;;;8.10;3.13;;;19.10;53.20;;;;;;5034408;28;20583;-59
2021/12/17 13:23:33;;;;;;;3.83;2.92;;;19.10;53.20;;;;;;5035183;28;20049;-62
2021/12/17 13:26:03;;;;;;;7.05;3.28;;;19.10;53.10;;;;;;5034463;28;20509;-60
2021/12/17 13:28:50;;;;;;;3.08;2.85;;;19.10;53.00;;;;;;5032060;28;20405;-60
2021/12/17 13:31:37;;;;;;;4.88;2.70;;;19.10;52.70;;;;;;5032038;28;20123;-60
2021/12/17 13:34:13;;;;;;;4.68;2.58;;;19.20;52.80;;;;;;5044520;28;20313;-60
2021/12/17 13:36:51;;;;;;;6.60;3.75;;;19.10;52.70;;;;;;5030520;28;20634;-60
2021/12/17 13:39:18;;;;;;;7.35;3.88;;;19.10;52.60;;;;;;5030016;28;20045;-61
2021/12/17 13:41:47;;;;;;;4.10;3.17;;;19.10;52.50;;;;;;5028966;28;20498;-60
2021/12/17 13:44:38;;;;;;;5.90;3.00;;;19.20;52.50;;;;;;5043584;28;20084;-61
2021/12/17 13:47:17;;;;;;;6.55;3.38;;;19.20;52.40;;;;;;5036912;28;20050;-61
2021/12/17 13:49:47;;;;;;;3.53;2.78;;;19.20;52.40;;;;;;5036699;28;20709;-60
2021/12/17 13:52:15;;;;;;;3.63;3.03;;;19.20;52.40;;;;;;5036122;28;20051;-60
2021/12/17 13:54:46;;;;;;;4.45;3.40;;;19.20;52.30;;;;;;5029714;28;20036;-60
2021/12/17 13:57:16;;;;;;;3.13;2.67;;;19.20;52.20;;;;;;5027481;28;20042;-60
2021/12/17 13:59:45;;;;;;;3.17;2.40;;;19.20;52.10;;;;;;5033240;28;20048;-61
2021/12/17 14:02:15;;;;;;;6.43;3.38;;;19.20;52.10;;;;;;5035978;28;20139;-61
2021/12/17 14:04:44;;;;;;;7.82;4.15;;;19.30;52.00;;;;;;5037033;28;20132;-61
2021/12/17 14:07:12;;;;;;;3.88;3.28;;;19.30;51.90;;;;;;5032877;28;20044;-61
2021/12/17 14:09:39;;;;;;;4.00;2.90;;;19.30;51.70;;;;;;5044327;28;20059;-61
2021/12/17 14:12:24;;;;;;;5.53;2.78;;;19.40;51.50;;;;;;5032347;28;20059;-61
2021/12/17 14:14:58;;;;;;;4.97;3.10;;;19.40;51.40;;;;;;5033226;28;20099;-61
2021/12/17 14:17:33;;;;;;;3.72;2.88;;;19.40;51.00;;;;;;5032262;28;20065;-60
2021/12/17 14:20:06;;;;;;;3.85;2.63;;;19.50;51.10;;;;;;5034865;28;20458;-60
2021/12/17 14:22:38;;;;;;;4.57;3.25;;;19.50;50.90;;;;;;5035958;28;20052;-60
2021/12/17 14:25:40;;;;;;;2.33;1.92;;;19.50;50.80;;;;;;5031240;28;20033;-60
2021/12/17 14:28:16;;;;;;;4.30;2.17;;;19.50;50.70;;;;;;4998953;28;20069;-61
2021/12/17 14:30:45;;;;;;;4.35;2.20;;;19.50;50.70;;;;;;4988200;28;20598;-60
2021/12/17 14:33:16;;;;;;;2.90;2.28;;;19.50;50.70;;;;;;4993561;28;20050;-59
2021/12/17 14:35:50;;;;;;;3.25;2.08;;;19.50;51.20;;;;;;4990122;28;20056;-60
2021/12/17 14:38:19;;;;;;;3.20;2.20;;;19.50;50.60;;;;;;5000457;28;20518;-62
2021/12/17 14:40:59;;;;;;;2.90;2.50;;;19.50;50.60;;;;;;4998985;28;20046;-61
2021/12/17 14:43:31;;;;;;;3.33;2.40;;;19.50;50.50;;;;;;5005009;28;20038;-61
2021/12/17 14:46:12;;;;;;;2.42;1.75;;;19.50;50.60;;;;;;4989427;28;20053;-61
2021/12/17 14:48:57;;;;;;;3.75;2.53;;;19.50;50.50;;;;;;4990190;28;20050;-60
2021/12/17 15:05:20;;;;;;;1.88;1.55;;;19.40;50.50;;;;;;5034867;28;20045;-60
2021/12/17 15:07:47;;;;;;;4.03;1.67;;;19.40;50.60;;;;;;5035334;28;20555;-61
2021/12/17 15:10:18;;;;;;;2.20;1.67;;;19.30;50.50;;;;;;5040812;28;20701;-63
2021/12/17 15:12:46;;;;;;;2.80;2.33;;;19.30;50.50;;;;;;5028953;28;20069;-62
2021/12/17 15:15:17;;;;;;;2.00;1.50;;;19.30;50.50;;;;;;5031041;28;20037;-61
2021/12/17 15:17:45;;;;;;;1.90;1.02;;;19.30;50.50;;;;;;5027445;28;20514;-61
2021/12/17 15:20:14;;;;;;;1.60;1.50;;;19.30;50.60;;;;;;5033928;28;20059;-61
2021/12/17 15:22:44;;;;;;;2.63;1.40;;;19.30;50.60;;;;;;5039503;28;20049;-61
2021/12/17 15:25:12;;;;;;;2.00;1.02;;;19.30;50.60;;;;;;5038280;28;20037;-61
2021/12/17 15:27:41;;;;;;;2.20;1.35;;;19.20;50.60;;;;;;5031942;28;20767;-61
2021/12/17 15:30:11;;;;;;;3.72;1.73;;;19.30;50.60;;;;;;5030911;28;20468;-61
2021/12/17 15:32:39;;;;;;;3.40;1.30;;;19.20;50.60;;;;;;5033359;28;20147;-60
2021/12/17 15:35:07;;;;;;;2.80;1.27;;;19.20;50.60;;;;;;5031199;28;20045;-61
2021/12/17 15:37:34;;;;;;;2.30;1.38;;;19.20;50.70;;;;;;5035129;28;20460;-61
2021/12/17 15:40:05;;;;;;;1.33;1.23;;;19.10;50.60;;;;;;5040540;28;20063;-61
2021/12/17 15:42:32;;;;;;;0.95;0.90;;;19.10;50.70;;;;;;5031484;28;20418;-58
2021/12/17 15:44:59;;;;;;;5.15;1.55;;;19.10;50.70;;;;;;5028440;28;20042;-62
2021/12/17 15:47:26;;;;;;;1.95;1.38;;;19.10;50.70;;;;;;5035077;28;20045;-61
2021/12/17 15:49:54;;;;;;;2.38;1.23;;;19.10;50.70;;;;;;5035122;28;20563;-66
2021/12/17 15:52:21;;;;;;;1.05;1.02;;;19.10;50.80;;;;;;5036395;28;20128;-60